Time;durP1;ratioP1;P1;durP2;ratioP2;P2;SDS_P1;SDS_P2;PMS_P1;PMS_P2;Temp;Humidity;BMP_temperature;BMP_pressure;BME280_temperature;BME280_humidity;BME280_pressure;Samples;Min_cycle;Max_cycle;Signal;HPM_P1;HPM_P2
2021/12/23 00:01:50;;;;;;;19.95;14.80;;;1.40;99.20;;;;;;4752917;30;20561;-91
2021/12/23 00:04:51;;;;;;;21.90;15.18;;;1.40;99.10;;;;;;4754994;30;20034;-92
2021/12/23 00:07:22;;;;;;;20.30;13.88;;;1.40;99.10;;;;;;4754465;30;20048;-91
2021/12/23 00:10:16;;;;;;;20.42;14.90;;;1.40;99.10;;;;;;4758607;30;20032;-91
2021/12/23 00:13:21;;;;;;;20.08;13.90;;;1.40;99.10;;;;;;4758562;30;20106;-91
2021/12/23 00:16:03;;;;;;;21.33;15.48;;;1.40;99.10;;;;;;4733966;30;20064;-90
2021/12/23 00:24:04;;;;;;;22.63;15.57;;;1.50;99.10;;;;;;4761443;30;20118;-91
2021/12/23 00:26:30;;;;;;;22.15;15.05;;;1.40;99.00;;;;;;4742208;30;20052;-92
2021/12/23 00:29:08;;;;;;;22.73;15.38;;;1.50;99.00;;;;;;4755112;30;20028;-90
2021/12/23 00:31:36;;;;;;;23.10;15.43;;;1.50;98.90;;;;;;4755196;30;20395;-91
2021/12/23 00:34:11;;;;;;;26.48;16.40;;;1.50;99.00;;;;;;4756415;30;20127;-92
2021/12/23 00:36:58;;;;;;;23.48;15.45;;;1.50;98.80;;;;;;4787201;29;20028;-91
2021/12/23 00:39:37;;;;;;;21.92;14.60;;;1.50;98.80;;;;;;4759896;30;20040;-94
2021/12/23 00:42:23;;;;;;;22.13;15.68;;;1.60;98.80;;;;;;4745763;30;20043;-91
2021/12/23 00:45:04;;;;;;;22.10;15.63;;;1.50;98.80;;;;;;4731783;30;20048;-92
2021/12/23 00:47:43;;;;;;;23.63;16.17;;;1.50;98.80;;;;;;4730670;30;20133;-91
2021/12/23 00:50:09;;;;;;;22.10;14.25;;;1.50;98.80;;;;;;4738135;30;20032;-91
2021/12/23 00:52:45;;;;;;;21.08;14.90;;;1.50;98.80;;;;;;4739373;30;20028;-92
2021/12/23 00:55:35;;;;;;;21.30;14.52;;;1.60;98.90;;;;;;4711764;30;20114;-91
2021/12/23 00:58:04;;;;;;;25.33;15.50;;;1.50;98.80;;;;;;4754357;30;20063;-92
2021/12/23 01:00:38;;;;;;;23.65;15.73;;;1.60;98.70;;;;;;4770842;30;20051;-91
2021/12/23 01:03:12;;;;;;;22.88;15.88;;;1.60;98.70;;;;;;4739699;30;20051;-93
2021/12/23 01:06:07;;;;;;;23.20;15.68;;;1.60;98.70;;;;;;4739738;30;20039;-92
2021/12/23 01:08:46;;;;;;;22.48;15.60;;;1.60;98.70;;;;;;4728015;30;20051;-92
2021/12/23 01:11:24;;;;;;;24.55;15.57;;;1.60;98.60;;;;;;4717150;30;20056;-92
2021/12/23 01:19:23;;;;;;;21.40;15.55;;;1.60;98.50;;;;;;4759206;30;20051;-92
2021/12/23 01:21:55;;;;;;;23.27;16.30;;;1.60;98.40;;;;;;4741110;30;20040;-92
2021/12/23 01:24:33;;;;;;;20.60;15.63;;;1.60;98.40;;;;;;4757811;30;20028;-92
2021/12/23 01:27:32;;;;;;;24.08;15.27;;;1.60;98.40;;;;;;4770411;30;20048;-93
2021/12/23 01:30:14;;;;;;;21.50;15.02;;;1.60;98.40;;;;;;4769547;30;20041;-92
2021/12/23 01:33:13;;;;;;;22.25;15.60;;;1.60;98.40;;;;;;4771718;30;20075;-93
2021/12/23 01:35:52;;;;;;;21.25;16.23;;;1.60;98.40;;;;;;4729369;30;20040;-94
2021/12/23 01:38:26;;;;;;;21.77;15.45;;;1.60;98.40;;;;;;4759371;30;20127;-92
2021/12/23 01:41:09;;;;;;;21.05;14.98;;;1.60;98.40;;;;;;4758292;30;20040;-93
2021/12/23 01:43:46;;;;;;;21.50;14.80;;;1.70;98.40;;;;;;4742824;30;20036;-92
2021/12/23 01:46:22;;;;;;;22.20;15.20;;;1.70;98.30;;;;;;4759981;30;20216;-93
2021/12/23 01:49:00;;;;;;;21.05;15.35;;;1.70;98.30;;;;;;4772989;30;20433;-92
2021/12/23 01:51:33;;;;;;;22.05;15.55;;;1.70;98.30;;;;;;4757982;30;20052;-92
2021/12/23 01:54:08;;;;;;;24.73;16.42;;;1.60;98.20;;;;;;4773743;30;20028;-93
2021/12/23 01:56:42;;;;;;;23.75;15.57;;;1.70;98.20;;;;;;4775321;30;20044;-91
2021/12/23 01:59:26;;;;;;;;;;;;;;;;;;;;;
2021/12/23 02:02:08;;;;;;;;;;;;;;;;;;;;;
2021/12/23 02:05:11;;;;;;;;;;;;;;;;;;;;;
2021/12/23 02:07:58;;;;;;;18.95;14.35;;;1.60;98.20;;;;;;4758970;30;20123;-92
2021/12/23 02:10:42;;;;;;;23.85;16.00;;;1.70;98.30;;;;;;4756942;30;20097;-92
2021/12/23 02:13:21;;;;;;;24.40;16.52;;;1.60;98.30;;;;;;4773880;30;20095;-92
2021/12/23 02:16:16;;;;;;;23.10;16.33;;;1.60;98.20;;;;;;4759371;30;20464;-91
2021/12/23 02:18:55;;;;;;;25.25;16.60;;;1.60;98.20;;;;;;4743872;30;20048;-93
2021/12/23 02:21:35;;;;;;;;;;;;;;;;;;;;;
2021/12/23 02:24:09;;;;;;;24.15;16.10;;;1.60;98.20;;;;;;4757101;30;20135;-93
2021/12/23 02:26:51;;;;;;;22.13;16.17;;;1.70;98.20;;;;;;4771364;30;20032;-91
2021/12/23 02:29:57;;;;;;;;;;;;;;;;;;;;;
2021/12/23 02:32:33;;;;;;;22.60;16.05;;;1.60;98.20;;;;;;4770794;30;20040;-91
2021/12/23 02:35:13;;;;;;;24.02;16.45;;;1.60;98.10;;;;;;4771836;30;20136;-93
2021/12/23 02:38:01;;;;;;;;;;;;;;;;;;;;;
2021/12/23 02:41:02;;;;;;;22.85;15.95;;;1.60;98.10;;;;;;4758075;30;20111;-94
2021/12/23 02:43:37;;;;;;;23.85;16.35;;;1.60;98.10;;;;;;4768883;30;20036;-93
2021/12/23 02:46:31;;;;;;;21.88;15.43;;;1.60;98.00;;;;;;4786066;30;20080;-92
2021/12/23 02:49:08;;;;;;;22.00;15.65;;;1.60;98.00;;;;;;4771919;30;20028;-92
2021/12/23 02:52:10;;;;;;;22.60;15.55;;;1.50;98.00;;;;;;4771801;30;20098;-93
2021/12/23 02:54:51;;;;;;;;;;;;;;;;;;;;;
2021/12/23 02:57:42;;;;;;;24.48;16.15;;;1.50;97.90;;;;;;4775995;30;20036;-91
2021/12/23 03:03:24;;;;;;;23.35;15.95;;;1.50;97.90;;;;;;4757509;30;20044;-93
2021/12/23 03:06:23;;;;;;;;;;;;;;;;;;;;;
2021/12/23 03:12:02;;;;;;;23.15;15.20;;;1.40;97.90;;;;;;4757354;30;20098;-93
2021/12/23 03:14:41;;;;;;;23.67;15.50;;;1.40;97.90;;;;;;4756281;30;20028;-92
2021/12/23 03:17:59;;;;;;;22.52;15.70;;;1.40;97.90;;;;;;4756809;30;20032;-92
2021/12/23 03:24:04;;;;;;;23.58;15.70;;;1.40;97.90;;;;;;4748556;30;20070;-91
2021/12/23 03:29:34;;;;;;;22.70;16.50;;;1.40;98.00;;;;;;4757987;30;20099;-92
2021/12/23 03:32:20;;;;;;;21.10;15.13;;;1.40;98.00;;;;;;4756027;30;20040;-93
2021/12/23 03:35:03;;;;;;;22.35;15.68;;;1.40;98.00;;;;;;4756791;30;20140;-93
2021/12/23 03:37:40;;;;;;;23.10;16.27;;;1.40;97.90;;;;;;4756554;30;20036;-92
2021/12/23 03:40:22;;;;;;;22.05;15.77;;;1.40;97.90;;;;;;4742846;30;20043;-92
2021/12/23 03:43:16;;;;;;;25.05;15.95;;;1.40;97.90;;;;;;4771678;30;20036;-92
2021/12/23 03:45:43;;;;;;;24.90;16.80;;;1.30;97.80;;;;;;4736804;30;20053;-92
2021/12/23 03:48:15;;;;;;;26.15;17.17;;;1.30;97.80;;;;;;4754971;30;20279;-92
2021/12/23 03:50:52;;;;;;;23.40;15.88;;;1.30;97.80;;;;;;4753764;30;20562;-90
2021/12/23 03:53:58;;;;;;;21.27;15.07;;;1.30;97.80;;;;;;4753505;30;20037;-91
2021/12/23 03:56:46;;;;;;;24.65;15.75;;;1.20;97.80;;;;;;4740601;30;20041;-91
2021/12/23 03:59:15;;;;;;;22.50;15.02;;;1.20;97.80;;;;;;4763341;30;20361;-92
2021/12/23 04:02:03;;;;;;;;;;;;;;;;;;;;;
2021/12/23 04:04:59;;;;;;;;;;;;;;;;;;;;;
2021/12/23 04:07:25;;;;;;;22.67;16.15;;;1.20;97.80;;;;;;4756460;30;20054;-91
2021/12/23 04:10:16;;;;;;;21.70;15.40;;;1.20;97.80;;;;;;4755402;30;20498;-89
2021/12/23 04:12:49;;;;;;;23.95;16.30;;;1.20;97.90;;;;;;4756156;30;20446;-90
2021/12/23 04:15:17;;;;;;;23.50;16.60;;;1.20;97.90;;;;;;4755344;30;20058;-90
2021/12/23 04:17:51;;;;;;;23.13;16.42;;;1.20;97.80;;;;;;4754005;30;20115;-92
2021/12/23 04:20:45;;;;;;;23.85;16.20;;;1.20;97.90;;;;;;4753516;30;20036;-91
2021/12/23 04:23:16;;;;;;;24.35;16.33;;;1.30;97.90;;;;;;4756514;30;20097;-91
2021/12/23 04:25:53;;;;;;;24.70;15.45;;;1.30;97.90;;;;;;4740150;30;20425;-90
2021/12/23 04:31:19;;;;;;;26.23;17.65;;;1.30;97.90;;;;;;4753072;30;20101;-91
2021/12/23 04:34:32;;;;;;;24.80;16.13;;;1.30;97.90;;;;;;4770100;30;20032;-91
2021/12/23 04:37:05;;;;;;;24.70;16.25;;;1.30;97.90;;;;;;4780540;30;20093;-93
2021/12/23 04:39:39;;;;;;;25.58;16.25;;;1.30;97.90;;;;;;4760696;30;20062;-90
2021/12/23 04:42:18;;;;;;;;;;;;;;;;;;;;;
2021/12/23 04:44:54;;;;;;;;;;;;;;;;;;;;;
2021/12/23 04:47:50;;;;;;;;;;;;;;;;;;;;;
2021/12/23 04:50:20;;;;;;;25.33;17.03;;;1.40;97.90;;;;;;4781761;30;20060;-91
2021/12/23 04:52:56;;;;;;;24.38;17.00;;;1.40;97.90;;;;;;4757607;30;20146;-92
2021/12/23 04:55:37;;;;;;;22.15;16.33;;;1.40;97.90;;;;;;4757319;30;20036;-93
2021/12/23 04:58:19;;;;;;;;;;;;;;;;;;;;;
2021/12/23 05:00:51;;;;;;;;;;;1.40;97.90;;;;;;4771419;30;20119;-92
2021/12/23 05:03:52;;;;;;;;;;;;;;;;;;;;;
2021/12/23 05:06:41;;;;;;;28.15;17.02;;;1.30;97.90;;;;;;4754184;30;20040;-91
2021/12/23 05:09:21;;;;;;;26.85;17.70;;;1.40;97.90;;;;;;4735757;30;20040;-92
2021/12/23 05:11:50;;;;;;;28.33;18.35;;;1.40;97.90;;;;;;4772691;30;20043;-92
2021/12/23 05:14:25;;;;;;;26.13;18.10;;;1.40;97.90;;;;;;4758115;30;20501;-91
2021/12/23 05:17:14;;;;;;;29.50;18.45;;;1.40;97.90;;;;;;4753033;30;20055;-92
2021/12/23 05:19:52;;;;;;;26.33;18.73;;;1.50;97.90;;;;;;4748894;30;20048;-92
2021/12/23 05:22:47;;;;;;;26.77;18.38;;;1.40;97.80;;;;;;4745163;30;20032;-91
2021/12/23 05:25:21;;;;;;;28.23;19.05;;;1.50;97.80;;;;;;4722411;30;20052;-92
2021/12/23 05:27:52;;;;;;;26.52;19.20;;;1.50;97.70;;;;;;4741192;30;20032;-93
2021/12/23 05:30:25;;;;;;;28.35;17.77;;;1.50;97.70;;;;;;4741163;30;20028;-92
2021/12/23 05:32:51;;;;;;;28.67;19.38;;;1.50;97.70;;;;;;4741312;30;20513;-90
2021/12/23 05:35:27;;;;;;;26.58;18.75;;;1.50;97.70;;;;;;4739783;30;20028;-90
2021/12/23 05:37:53;;;;;;;29.77;19.20;;;1.50;97.70;;;;;;4739633;30;20071;-90
2021/12/23 05:40:23;;;;;;;27.80;18.80;;;1.50;97.70;;;;;;4755506;30;20028;-90
2021/12/23 05:42:55;;;;;;;31.57;20.37;;;1.50;97.70;;;;;;4726480;30;20041;-90
2021/12/23 05:45:28;;;;;;;;;;;1.50;97.60;;;;;;4742633;30;20270;-91
2021/12/23 05:48:34;;;;;;;26.55;18.40;;;1.50;97.60;;;;;;4769328;30;19922;-91
2021/12/23 05:51:13;;;;;;;30.33;19.67;;;1.50;97.60;;;;;;4738864;30;20048;-90
2021/12/23 06:00:58;;;;;;;;;;;;;;;;;;;;;
2021/12/23 06:04:05;;;;;;;30.25;20.17;;;1.50;97.50;;;;;;4716212;30;20121;-89
2021/12/23 06:07:08;;;;;;;29.57;20.13;;;1.50;97.50;;;;;;4771071;30;20025;-90
2021/12/23 06:09:52;;;;;;;28.98;19.17;;;1.50;97.50;;;;;;4762280;30;20063;-92
2021/12/23 06:12:28;;;;;;;;;;;;;;;;;;;;;
2021/12/23 06:15:03;;;;;;;29.08;20.00;;;1.50;97.50;;;;;;4759657;30;20068;-89
2021/12/23 06:17:59;;;;;;;30.15;20.20;;;1.50;97.40;;;;;;4755991;30;20028;-89
2021/12/23 06:20:28;;;;;;;29.77;20.20;;;1.50;97.70;;;;;;4755441;30;20040;-89
2021/12/23 06:22:54;;;;;;;29.70;19.45;;;1.50;97.40;;;;;;4757909;30;20115;-89
2021/12/23 06:25:29;;;;;;;31.63;20.63;;;1.50;97.40;;;;;;4772385;30;20040;-92
2021/12/23 06:28:24;;;;;;;31.90;19.53;;;1.50;97.40;;;;;;4746638;30;20446;-93
2021/12/23 06:31:04;;;;;;;31.07;21.03;;;1.50;97.40;;;;;;4773977;30;20107;-90
2021/12/23 06:33:35;;;;;;;27.95;19.33;;;1.50;97.40;;;;;;4762797;30;20042;-90
2021/12/23 06:36:03;;;;;;;29.88;20.10;;;1.50;97.40;;;;;;4762382;30;20036;-89
2021/12/23 06:38:32;;;;;;;30.27;19.58;;;1.50;97.40;;;;;;4776595;30;20028;-86
2021/12/23 06:41:04;;;;;;;33.75;21.00;;;1.50;97.40;;;;;;4771146;29;20056;-87
2021/12/23 06:43:46;;;;;;;30.52;19.70;;;1.50;97.30;;;;;;4775157;30;20044;-90
2021/12/23 06:46:46;;;;;;;34.42;20.90;;;1.50;97.30;;;;;;4774687;30;20064;-90
2021/12/23 06:49:26;;;;;;;;;;;;;;;;;;;;;
2021/12/23 06:51:53;;;;;;;33.13;20.77;;;1.60;97.30;;;;;;4758100;30;20109;-90
2021/12/23 06:54:25;;;;;;;33.28;20.92;;;1.50;97.30;;;;;;4743300;30;20089;-90
2021/12/23 06:56:51;;;;;;;30.95;20.92;;;1.50;97.20;;;;;;4743632;30;20040;-89
2021/12/23 06:59:17;;;;;;;32.67;21.38;;;1.50;97.30;;;;;;4743171;30;20044;-90
2021/12/23 07:01:47;;;;;;;34.40;20.50;;;1.60;97.40;;;;;;4742502;30;20039;-90
2021/12/23 07:04:26;;;;;;;32.15;20.85;;;1.50;97.30;;;;;;4759814;30;20029;-90
2021/12/23 07:07:29;;;;;;;31.20;20.25;;;1.50;97.30;;;;;;4759961;30;20075;-90
2021/12/23 07:10:00;;;;;;;31.77;19.83;;;1.50;97.30;;;;;;4739394;30;20040;-91
2021/12/23 07:12:45;;;;;;;34.35;20.90;;;1.60;97.30;;;;;;4767149;30;20025;-90
2021/12/23 07:15:25;;;;;;;32.10;20.42;;;1.60;97.30;;;;;;4729288;30;20048;-90
2021/12/23 07:18:02;;;;;;;;;;;;;;;;;;;;;
2021/12/23 07:20:36;;;;;;;48.38;29.63;;;1.60;97.40;;;;;;4757456;30;20427;-89
2021/12/23 07:23:05;;;;;;;43.78;26.60;;;1.60;97.40;;;;;;4758182;30;20032;-89
2021/12/23 07:26:00;;;;;;;41.85;23.55;;;1.60;97.30;;;;;;4766913;30;20032;-89
2021/12/23 07:28:28;;;;;;;32.75;19.92;;;1.60;97.40;;;;;;4775737;30;20092;-90
2021/12/23 07:30:55;;;;;;;35.22;21.52;;;1.60;97.30;;;;;;4776213;30;20031;-91
2021/12/23 07:33:25;;;;;;;31.52;19.80;;;1.60;97.30;;;;;;4788566;30;20036;-90
2021/12/23 07:36:03;;;;;;;33.38;20.35;;;1.60;97.30;;;;;;4759543;30;20035;-88
2021/12/23 07:38:48;;;;;;;32.72;19.58;;;1.60;97.30;;;;;;4758088;30;20067;-89
2021/12/23 07:41:30;;;;;;;31.50;19.85;;;1.60;97.40;;;;;;4758112;30;20089;-90
2021/12/23 07:44:06;;;;;;;34.22;21.70;;;1.60;97.40;;;;;;4748576;30;20028;-90
2021/12/23 07:46:45;;;;;;;34.72;21.88;;;1.60;97.40;;;;;;4758825;30;20062;-90
2021/12/23 07:49:18;;;;;;;33.92;21.63;;;1.70;97.50;;;;;;4769617;30;20480;-89
2021/12/23 07:52:03;;;;;;;33.53;21.10;;;1.70;97.40;;;;;;4785344;30;20052;-88
2021/12/23 07:54:57;;;;;;;35.25;20.73;;;1.70;97.40;;;;;;4754879;30;20035;-90
2021/12/23 07:57:31;;;;;;;34.55;21.67;;;1.70;97.40;;;;;;4768185;30;20520;-90
2021/12/23 08:00:00;;;;;;;32.00;20.65;;;1.70;97.40;;;;;;4757348;30;20048;-88
2021/12/23 08:02:27;;;;;;;33.83;21.55;;;1.70;97.50;;;;;;4753800;30;20063;-89
2021/12/23 08:05:01;;;;;;;35.22;21.67;;;1.70;97.50;;;;;;4764113;30;20070;-88
2021/12/23 08:07:30;;;;;;;31.75;20.73;;;1.70;97.50;;;;;;4739947;30;20040;-89
2021/12/23 08:09:59;;;;;;;34.38;21.73;;;1.70;97.50;;;;;;4753724;30;20040;-88
2021/12/23 08:12:28;;;;;;;37.78;22.40;;;1.70;97.50;;;;;;4753930;30;20032;-90
2021/12/23 08:14:57;;;;;;;36.08;22.05;;;1.70;97.50;;;;;;4739632;30;20055;-88
2021/12/23 08:17:30;;;;;;;33.88;22.40;;;1.70;97.60;;;;;;4753987;30;20043;-88
2021/12/23 08:20:01;;;;;;;33.72;21.25;;;1.80;97.60;;;;;;4724222;30;20043;-88
2021/12/23 08:22:35;;;;;;;33.20;20.90;;;1.80;97.60;;;;;;4754233;30;20096;-91
2021/12/23 08:25:07;;;;;;;32.78;20.48;;;1.80;97.60;;;;;;4762672;30;20488;-89
2021/12/23 08:27:38;;;;;;;33.20;21.05;;;1.80;97.60;;;;;;4748203;30;20039;-88
2021/12/23 08:30:12;;;;;;;33.05;21.70;;;1.80;97.60;;;;;;4753529;30;20035;-88
2021/12/23 08:33:01;;;;;;;34.25;21.27;;;1.80;97.60;;;;;;4753588;30;20485;-89
2021/12/23 08:35:32;;;;;;;34.58;20.98;;;1.80;97.60;;;;;;4750752;30;20067;-89
2021/12/23 08:37:58;;;;;;;35.03;21.67;;;1.90;97.50;;;;;;4754547;30;20094;-89
2021/12/23 08:40:32;;;;;;;32.13;20.70;;;1.80;97.50;;;;;;4753613;30;20121;-88
2021/12/23 08:43:21;;;;;;;;;;;;;;;;;;;;;
2021/12/23 08:46:24;;;;;;;33.78;21.77;;;1.90;97.50;;;;;;4754961;30;20416;-89
2021/12/23 08:49:07;;;;;;;31.75;20.30;;;1.90;97.60;;;;;;4757580;30;20100;-87
2021/12/23 08:51:40;;;;;;;36.80;21.50;;;1.90;97.50;;;;;;4756909;30;20048;-89
2021/12/23 08:54:42;;;;;;;34.72;20.75;;;1.90;97.60;;;;;;4787577;30;20048;-88
2021/12/23 08:57:23;;;;;;;;;;;;;;;;;;;;;
2021/12/23 08:59:59;;;;;;;33.88;21.70;;;1.90;97.50;;;;;;4755985;30;20028;-89
2021/12/23 09:02:34;;;;;;;33.08;21.58;;;1.90;97.50;;;;;;4754035;30;20032;-88
2021/12/23 09:05:07;;;;;;;36.10;22.02;;;2.00;97.50;;;;;;4768216;29;20048;-89
2021/12/23 09:08:38;;;;;;;34.38;21.30;;;1.90;97.50;;;;;;4743152;30;20044;-90
2021/12/23 09:14:33;;;;;;;34.80;22.27;;;2.00;97.60;;;;;;4696866;30;20550;-90
2021/12/23 09:17:07;;;;;;;33.58;21.90;;;2.00;97.60;;;;;;4716799;30;20037;-88
2021/12/23 09:19:35;;;;;;;32.70;21.08;;;2.00;97.60;;;;;;4699411;30;20128;-89
2021/12/23 09:22:36;;;;;;;;;;;;;;;;;;;;;
2021/12/23 09:25:23;;;;;;;31.73;21.20;;;2.00;97.60;;;;;;4699363;30;20447;-90
2021/12/23 09:28:07;;;;;;;35.25;22.02;;;2.10;97.70;;;;;;4701774;30;20093;-90
2021/12/23 09:33:52;;;;;;;35.80;21.85;;;2.20;97.70;;;;;;4761775;30;20051;-88
2021/12/23 09:36:21;;;;;;;35.42;22.13;;;2.20;97.60;;;;;;4781197;30;20547;-88
2021/12/23 09:38:49;;;;;;;34.92;21.60;;;2.20;97.60;;;;;;4775074;30;20044;-89
2021/12/23 09:41:25;;;;;;;37.00;22.98;;;2.30;97.60;;;;;;4758677;30;20059;-89
2021/12/23 09:43:59;;;;;;;34.20;22.15;;;2.30;97.60;;;;;;4766639;29;20032;-89
2021/12/23 09:46:41;;;;;;;34.92;22.80;;;2.20;97.60;;;;;;4740492;30;20094;-90
2021/12/23 09:49:14;;;;;;;36.35;22.75;;;2.30;97.60;;;;;;4753925;30;20044;-89
2021/12/23 09:51:48;;;;;;;33.05;20.38;;;2.30;97.60;;;;;;4755593;30;20032;-88
2021/12/23 09:54:18;;;;;;;36.72;23.17;;;2.30;97.70;;;;;;4756182;30;20039;-90
2021/12/23 09:56:52;;;;;;;34.28;21.70;;;2.30;97.60;;;;;;4764293;30;20533;-88
2021/12/23 09:59:20;;;;;;;33.50;22.13;;;2.30;97.60;;;;;;4743595;30;20488;-88
2021/12/23 10:02:12;;;;;;;39.78;24.50;;;2.40;97.60;;;;;;4755552;30;20502;-89
2021/12/23 10:04:56;;;;;;;37.20;23.40;;;2.40;97.60;;;;;;4757486;30;20369;-89
2021/12/23 10:07:34;;;;;;;36.85;23.00;;;2.40;97.60;;;;;;4758335;30;20038;-88
2021/12/23 10:10:11;;;;;;;35.88;21.98;;;2.40;97.60;;;;;;4767916;30;20032;-89
2021/12/23 10:28:30;;;;;;;36.25;22.38;;;2.60;97.50;;;;;;4775396;30;20074;-89
2021/12/23 10:39:37;;;;;;;37.63;23.00;;;2.80;97.50;;;;;;4758107;30;20076;-90
2021/12/23 10:42:29;;;;;;;34.53;21.00;;;2.80;97.50;;;;;;4746975;30;20573;-91
2021/12/23 10:45:03;;;;;;;;;;;2.80;97.60;;;;;;4757290;30;20509;-91
2021/12/23 10:48:07;;;;;;;34.55;21.95;;;2.80;97.50;;;;;;4756465;30;19922;-89
2021/12/23 11:00:57;;;;;;;34.70;21.75;;;3.00;97.60;;;;;;4772241;30;20057;-92
2021/12/23 11:03:41;;;;;;;32.90;20.45;;;3.00;97.60;;;;;;4774925;30;20067;-89
2021/12/23 11:06:28;;;;;;;35.95;23.05;;;3.10;97.70;;;;;;4774320;30;20039;-89
2021/12/23 11:09:30;;;;;;;35.80;21.92;;;3.10;97.60;;;;;;4774155;30;20039;-90
2021/12/23 11:27:46;;;;;;;36.40;22.58;;;3.30;97.60;;;;;;4775191;30;20047;-92
2021/12/23 11:40:36;;;;;;;;;;;;;;;;;;;;;
2021/12/23 11:47:45;;;;;;;;;;;;;;;;;;;;;
2021/12/23 11:54:06;;;;;;;;;;;;;;;;;;;;;
2021/12/23 11:56:40;;;;;;;42.03;24.38;;;3.50;97.70;;;;;;4739874;29;20052;-88
2021/12/23 11:59:13;;;;;;;37.55;22.05;;;3.50;97.60;;;;;;4774119;30;20063;-88
2021/12/23 12:02:47;;;;;;;;;;;;;;;;;;;;;
2021/12/23 12:08:42;;;;;;;32.03;19.48;;;3.60;97.80;;;;;;4713058;29;20037;-89
2021/12/23 12:15:01;;;;;;;;;;;;;;;;;;;;;
2021/12/23 12:22:08;;;;;;;;;;;;;;;;;;;;;
2021/12/23 12:25:00;;;;;;;34.75;20.85;;;3.80;97.70;;;;;;4772616;30;20073;-89
2021/12/23 12:27:29;;;;;;;35.88;20.73;;;3.80;97.70;;;;;;4774405;30;20439;-89
2021/12/23 12:34:12;;;;;;;35.30;21.27;;;3.90;97.70;;;;;;4780365;30;20043;-89
2021/12/23 12:44:43;;;;;;;;;;;;;;;;;;;;;
2021/12/23 12:47:49;;;;;;;;;;;;;;;;;;;;;
2021/12/23 12:54:40;;;;;;;;;;;;;;;;;;;;;
2021/12/23 12:58:02;;;;;;;;;;;;;;;;;;;;;
2021/12/23 13:05:00;;;;;;;;;;;;;;;;;;;;;
2021/12/23 13:08:19;;;;;;;33.83;20.40;;;4.20;97.60;;;;;;4832992;29;20043;-89
2021/12/23 13:14:50;;;;;;;;;;;;;;;;;;;;;
2021/12/23 13:32:36;;;;;;;;;;;;;;;;;;;;;
2021/12/23 13:36:07;;;;;;;35.90;21.08;;;4.30;97.80;;;;;;4745667;30;20044;-89
2021/12/23 13:42:17;;;;;;;31.20;19.33;;;4.40;97.90;;;;;;4749095;30;20064;-88
2021/12/23 13:45:31;;;;;;;34.08;19.48;;;4.40;97.80;;;;;;4737957;30;20100;-88
2021/12/23 13:48:04;;;;;;;31.92;19.83;;;4.50;97.80;;;;;;4753753;30;20075;-87
2021/12/23 13:50:33;;;;;;;32.83;21.55;;;4.50;97.90;;;;;;4766803;29;20046;-87
2021/12/23 13:53:19;;;;;;;32.50;21.17;;;4.50;97.80;;;;;;4786087;29;20038;-86
2021/12/23 13:55:46;;;;;;;33.97;21.60;;;4.50;97.90;;;;;;4780303;29;20096;-87
2021/12/23 13:58:27;;;;;;;33.95;21.05;;;4.50;97.90;;;;;;4792543;29;20117;-88
2021/12/23 14:01:05;;;;;;;;;;;;;;;;;;;;;
2021/12/23 14:03:45;;;;;;;33.67;21.77;;;4.60;97.90;;;;;;4807706;29;20041;-88
2021/12/23 14:06:18;;;;;;;36.08;21.73;;;4.60;98.00;;;;;;4793593;29;20106;-89
2021/12/23 14:08:52;;;;;;;31.70;20.65;;;4.60;98.00;;;;;;4807501;29;20122;-87
2021/12/23 14:11:28;;;;;;;34.40;21.27;;;4.60;98.00;;;;;;4792849;29;20070;-89
2021/12/23 14:14:04;;;;;;;31.75;20.17;;;4.60;98.00;;;;;;4805730;29;20046;-88
2021/12/23 14:27:48;;;;;;;31.90;19.23;;;4.60;98.10;;;;;;4809852;29;20043;-89
2021/12/23 14:30:54;;;;;;;;;;;;;;;;;;;;;
2021/12/23 15:15:17;;;;;;;33.10;21.17;;;4.60;98.50;;;;;;5446160;23;17894086;-90
2021/12/23 15:18:03;;;;;;;34.70;21.45;;;4.60;98.60;;;;;;6172549;23;20443;-89
2021/12/23 15:20:57;;;;;;;35.33;21.23;;;4.60;98.60;;;;;;6196349;23;20327;-89
2021/12/23 15:24:23;;;;;;;;;;;;;;;;;;;;;
2021/12/23 15:27:43;;;;;;;;;;;;;;;;;;;;;
2021/12/23 15:30:29;;;;;;;;;;;;;;;;;;;;;
2021/12/23 15:33:04;;;;;;;35.53;22.02;;;4.70;98.80;;;;;;6193450;23;20076;-88
2021/12/23 15:35:35;;;;;;;37.72;22.75;;;4.70;98.80;;;;;;6194508;23;20000;-87
2021/12/23 15:38:07;;;;;;;39.67;23.25;;;4.70;98.90;;;;;;6194161;23;20055;-87
2021/12/23 15:43:40;;;;;;;36.90;22.25;;;4.70;99.00;;;;;;6184730;23;20015;-89
2021/12/23 15:46:08;;;;;;;33.10;20.88;;;4.70;99.00;;;;;;6174100;23;20001;-88
2021/12/23 15:48:45;;;;;;;34.53;21.63;;;4.70;99.30;;;;;;6172588;23;20024;-87
2021/12/23 15:54:41;;;;;;;;;;;;;;;;;;;;;
2021/12/23 15:57:32;;;;;;;35.47;22.50;;;4.80;99.10;;;;;;6215638;23;19989;-89
2021/12/23 16:00:44;;;;;;;33.72;20.75;;;4.80;99.10;;;;;;6220257;23;20029;-91
2021/12/23 16:04:07;;;;;;;35.50;22.40;;;4.80;99.20;;;;;;6196278;23;19989;-86
2021/12/23 16:07:27;;;;;;;35.92;22.38;;;4.80;99.20;;;;;;6189454;23;20005;-89
2021/12/23 16:19:43;;;;;;;37.30;22.83;;;4.80;99.50;;;;;;6080077;23;20010;-90
2021/12/23 16:22:29;;;;;;;;;;;;;;;;;;;;;
2021/12/23 16:25:03;;;;;;;36.78;22.88;;;4.80;99.50;;;;;;6199030;23;20017;-89
2021/12/23 16:28:24;;;;;;;;;;;;;;;;;;;;;
2021/12/23 16:35:32;;;;;;;;;;;;;;;;;;;;;
2021/12/23 16:59:33;;;;;;;;;;;;;;;;;;;;;
2021/12/23 17:05:46;;;;;;;33.08;21.80;;;4.90;99.80;;;;;;5881968;24;20017;-90
2021/12/23 17:08:43;;;;;;;37.53;23.40;;;4.90;99.90;;;;;;5919771;24;20012;-91
2021/12/23 17:15:08;;;;;;;33.33;21.58;;;4.90;99.90;;;;;;5867027;23;20010;-90
2021/12/23 17:18:32;;;;;;;;;;;;;;;;;;;;;
2021/12/23 17:25:00;;;;;;;;;;;;;;;;;;;;;
2021/12/23 17:34:45;;;;;;;;;;;;;;;;;;;;;
2021/12/23 17:37:24;;;;;;;;;;;5.00;99.90;;;;;;6071605;23;20110;-89
2021/12/23 17:40:18;;;;;;;38.40;23.65;;;5.00;99.90;;;;;;6045356;23;19954;-88
2021/12/23 17:46:03;;;;;;;;;;;;;;;;;;;;;
2021/12/23 17:48:32;;;;;;;39.92;25.50;;;5.00;99.90;;;;;;6151272;23;20081;-89
2021/12/23 17:51:52;;;;;;;;;;;;;;;;;;;;;
2021/12/23 17:54:37;;;;;;;;;;;;;;;;;;;;;
2021/12/23 17:57:40;;;;;;;;;;;;;;;;;;;;;
2021/12/23 18:00:35;;;;;;;45.60;28.27;;;5.00;99.90;;;;;;6158254;23;20089;-90
2021/12/23 18:03:20;;;;;;;;;;;;;;;;;;;;;
2021/12/23 18:05:48;;;;;;;48.33;28.98;;;5.10;99.90;;;;;;6133199;23;20084;-89
2021/12/23 18:08:21;;;;;;;48.75;28.90;;;5.10;99.90;;;;;;6131745;23;20005;-89
2021/12/23 18:10:59;;;;;;;49.80;28.45;;;5.10;99.90;;;;;;6130637;23;20457;-87
2021/12/23 18:13:45;;;;;;;51.80;29.17;;;5.10;99.90;;;;;;6130787;23;20011;-88
2021/12/23 18:16:16;;;;;;;52.28;30.80;;;5.10;99.90;;;;;;6173555;23;20013;-87
2021/12/23 18:18:54;;;;;;;54.83;31.65;;;5.10;99.90;;;;;;6187640;23;20009;-89
2021/12/23 18:24:41;;;;;;;53.40;31.17;;;5.10;99.90;;;;;;6185910;23;20024;-88
2021/12/23 18:31:03;;;;;;;;;;;;;;;;;;;;;
2021/12/23 18:34:00;;;;;;;48.97;28.38;;;5.10;99.90;;;;;;6186155;23;20495;-88
2021/12/23 18:36:56;;;;;;;54.45;29.63;;;5.10;99.90;;;;;;6187012;23;19997;-89
2021/12/23 18:39:33;;;;;;;55.97;30.50;;;5.20;99.90;;;;;;6141310;23;20005;-88
2021/12/23 18:42:30;;;;;;;52.40;30.25;;;5.20;99.90;;;;;;6185447;23;20092;-89
2021/12/23 18:45:47;;;;;;;;;;;;;;;;;;;;;
2021/12/23 18:48:19;;;;;;;54.83;30.65;;;5.20;99.90;;;;;;6176515;23;20079;-89
2021/12/23 18:50:57;;;;;;;48.80;28.42;;;5.20;99.90;;;;;;6186161;23;20083;-89
2021/12/23 18:57:29;;;;;;;50.50;28.27;;;5.20;99.90;;;;;;6212618;23;20010;-88
2021/12/23 19:00:19;;;;;;;;;;;;;;;;;;;;;
2021/12/23 19:04:06;;;;;;;48.75;28.80;;;5.20;99.90;;;;;;6187364;23;20092;-89
2021/12/23 19:06:40;;;;;;;46.65;27.48;;;5.30;99.90;;;;;;6185975;23;20305;-89
2021/12/23 19:09:30;;;;;;;43.78;27.58;;;5.20;99.90;;;;;;6185935;23;20001;-89
2021/12/23 19:12:11;;;;;;;;;;;;;;;;;;;;;
2021/12/23 19:15:10;;;;;;;;;;;;;;;;;;;;;
2021/12/23 19:18:07;;;;;;;;;;;;;;;;;;;;;
2021/12/23 19:21:04;;;;;;;43.85;26.67;;;5.20;99.90;;;;;;6186432;23;20106;-90
2021/12/23 19:24:14;;;;;;;;;;;;;;;;;;;;;
2021/12/23 19:26:45;;;;;;;40.97;25.45;;;5.30;99.90;;;;;;6185449;23;20374;-88
2021/12/23 19:29:42;;;;;;;;;;;;;;;;;;;;;
2021/12/23 19:32:21;;;;;;;;;;;;;;;;;;;;;
2021/12/23 19:35:26;;;;;;;;;;;;;;;;;;;;;
2021/12/23 19:41:12;;;;;;;44.22;26.40;;;5.40;99.90;;;;;;6124834;23;20006;-89
2021/12/23 19:43:40;;;;;;;44.05;28.58;;;5.40;99.90;;;;;;6180385;23;20016;-87
2021/12/23 19:46:08;;;;;;;41.15;26.73;;;5.40;99.90;;;;;;6160394;23;20423;-88
2021/12/23 19:48:39;;;;;;;38.67;25.25;;;5.40;99.90;;;;;;6161947;23;20016;-87
2021/12/23 19:51:07;;;;;;;36.17;22.58;;;5.40;99.90;;;;;;6186923;23;20005;-89
2021/12/23 19:56:27;;;;;;;38.70;23.90;;;5.40;99.90;;;;;;6181543;23;20008;-87
2021/12/23 19:58:53;;;;;;;;;;;5.40;99.90;;;;;;6186513;23;20001;-87
2021/12/23 20:01:28;;;;;;;32.88;21.65;;;5.50;99.90;;;;;;6186137;23;19986;-88
2021/12/23 20:03:54;;;;;;;36.60;22.67;;;5.50;99.90;;;;;;6186440;23;20009;-87
2021/12/23 20:06:29;;;;;;;43.97;25.15;;;5.50;99.90;;;;;;6185794;23;20016;-88
2021/12/23 20:08:57;;;;;;;42.08;25.05;;;5.50;99.90;;;;;;6187929;23;20036;-88
2021/12/23 20:11:29;;;;;;;40.92;23.80;;;5.50;99.90;;;;;;6162073;23;20009;-88